Terminal Aerodrome Forecast
Issued by NWS Pendleton, OR

Home | Current Version | Previous Version | Text Only | Print | Product List | Glossary On
Versions: 1 2 3 4 5 6 7 8 9 10 11 12 13 14 15 16 17 18 19 20
432
FTUS46 KPDT 131300 AAA
TAFPDT
TAF AMD
KPDT 131300Z 1313/1412 32004KT P6SM SCT009 OVC080
      TEMPO 1313/1315 BKN009 OVC080
     FM131500 32004KT P6SM OVC008
     FM131800 31004KT P6SM OVC011=

USA.gov is the U.S. government's official web portal to all federal, state and local government web resources and services.